First Coast — WCR9075 — position and weather

sailwx.info

Track history (hours):
 
Tides and Currents Weather Stations Pressure Air Temp Water Temp Dewpoint Dewpoint Depression Visibility Wind Speed Wind Dir Waves Ship Positions

First Coast

Owner: DANN MARINE TOWING L C, CHESAPEAKE CITY, MD. More information available from US FCC via Universal Licensing System and Coast Guard Vessel Documentation Center.

Last reported at 2014-Dec-19 13:16 UTC. Time now 2014-Dec-19 13:41 UTC.
Position N 40°06' W 074°03'.

; draft 3.5 m.

Type: Tug. MMSI: 367024280.

Date/timePositionNaut miles runAvg speedWind from/ knotsBaromVisibWave heightAir tempDewpointWater temp
2014-Dec-19 13:16N 40°06' W 074°03'0 0.0
2014-Dec-19 12:16N 40°06' W 074°03'0 0.0
2014-Dec-19 11:19N 40°06' W 074°03'0 0.0
2014-Dec-19 04:22N 40°06' W 074°03'14 1.1
2014-Dec-18 15:11N 40°20' W 073°58'15 5.5
2014-Dec-18 12:28N 40°34' W 074°02'4 4.9
2014-Dec-18 11:34N 40°39' W 074°03'3 2.8
2014-Dec-18 10:33N 40°41' W 074°05'0 0.0
2014-Dec-18 09:33N 40°41' W 074°05'0 0.0
2014-Dec-18 08:33N 40°41' W 074°05'0 0.0
2014-Dec-18 07:33N 40°41' W 074°05'0 0.0
2014-Dec-18 06:33N 40°41' W 074°05'0 0.0
2014-Dec-18 05:33N 40°41' W 074°05'0 0.0
2014-Dec-18 04:33N 40°41' W 074°05'0 0.0
2014-Dec-18 03:33N 40°41' W 074°05'0 0.0
2014-Dec-18 02:33N 40°41' W 074°05'0 0.0
2014-Dec-18 01:33N 40°41' W 074°05'0 0.0
2014-Dec-18 00:33N 40°41' W 074°05'0 0.0
2014-Dec-17 23:33N 40°41' W 074°05'0 0.0
2014-Dec-17 22:33N 40°41' W 074°05'0 0.0
2014-Dec-17 21:33N 40°41' W 074°05'0 0.0
2014-Dec-17 20:30N 40°41' W 074°05'0 0.0
2014-Dec-17 19:33N 40°41' W 074°05'0 0.0
2014-Dec-17 18:33N 40°41' W 074°05'0 0.0
2014-Dec-17 17:33N 40°41' W 074°05'0 0.0
2014-Dec-17 16:33N 40°41' W 074°05'0 0.0
2014-Dec-17 15:33N 40°41' W 074°05'0 0.0
2014-Dec-17 14:33N 40°41' W 074°05'0 0.0
2014-Dec-17 13:33N 40°41' W 074°05'0 0.0
2014-Dec-17 12:33N 40°41' W 074°05'0 0.0
2014-Dec-17 11:33N 40°41' W 074°05'0 0.0
2014-Dec-17 10:33N 40°41' W 074°05'0 0.0
2014-Dec-17 09:33N 40°41' W 074°05'0 0.0
2014-Dec-17 08:33N 40°41' W 074°05'0 0.0
2014-Dec-17 07:33N 40°41' W 074°05'0 0.0
2014-Dec-17 06:33N 40°41' W 074°05'2 1.9
2014-Dec-17 05:33N 40°40' W 074°03'4 3.7
2014-Dec-17 04:33N 40°36' W 074°02'4 4.2
2014-Dec-17 03:31N 40°32' W 074°00'5 5.5
2014-Dec-17 02:33N 40°32' W 073°53'16 5.4
2014-Dec-16 23:32N 40°33' W 073°32'6 5.6
2014-Dec-16 22:32N 40°34' W 073°25'5 5.5
2014-Dec-16 21:33N 40°36' W 073°18'7 5.7
2014-Dec-16 20:20N 40°37' W 073°09'5 5.7
2014-Dec-16 19:30N 40°39' W 073°03'7 5.6
2014-Dec-16 18:10N 40°42' W 072°54'3 5.6
2014-Dec-16 17:33N 40°43' W 072°50'2 2.0
2014-Dec-16 16:31N 40°44' W 072°48'0 0.1
2014-Dec-16 15:29N 40°44' W 072°48'0 0.1
2014-Dec-16 14:24N 40°45' W 072°48'0 0.4
2014-Dec-16 13:27N 40°44' W 072°47'1 1.0
2014-Dec-16 12:30N 40°44' W 072°49'2 1.8
2014-Dec-16 11:33N 40°43' W 072°51'4 3.8
2014-Dec-16 10:33N 40°42' W 072°55'4 4.5
2014-Dec-16 09:33N 40°40' W 073°00'5 4.7
2014-Dec-16 08:33N 40°38' W 073°06'5 4.6
2014-Dec-16 07:34N 40°36' W 073°12'5 4.9
2014-Dec-16 06:30N 40°35' W 073°18'5 5.1
2014-Dec-16 05:33N 40°34' W 073°24'6 5.1
2014-Dec-16 04:28N 40°32' W 073°32'5 5.1
2014-Dec-16 03:32N 40°31' W 073°37'5 5.1
2014-Dec-16 02:33N 40°27' W 073°42'26 1.4
2014-Dec-15 08:18N 40°06' W 074°03'0 0.0
2014-Dec-15 05:32N 40°06' W 074°03'0 0.0
2014-Dec-15 04:17N 40°06' W 074°03'0 0.0
2014-Dec-15 02:29N 40°06' W 074°03'0 0.0
2014-Dec-15 00:20N 40°06' W 074°03'0 0.0
2014-Dec-14 19:14N 40°06' W 074°03'0 0.0
2014-Dec-14 15:15N 40°06' W 074°03'1 0.3
2014-Dec-14 12:32N 40°06' W 074°02'5 2.2
2014-Dec-14 10:11N 40°11' W 073°59'3 3.4
2014-Dec-14 09:27N 40°13' W 073°58'4 3.4
2014-Dec-14 08:15N 40°17' W 073°56'2 3.4
2014-Dec-14 07:33N 40°19' W 073°55'4 3.1
2014-Dec-14 06:23N 40°22' W 073°52'10 5.1
2014-Dec-14 04:21N 40°28' W 073°41'7 5.9
2014-Dec-14 03:12N 40°32' W 073°33'38 5.5
2014-Dec-13 20:18N 40°44' W 072°47'1 0.3
2014-Dec-13 17:07N 40°45' W 072°48'1 1.4
2014-Dec-13 16:24N 40°44' W 072°48'0 0.4
2014-Dec-13 15:23N 40°44' W 072°49'1 0.7
2014-Dec-13 14:30N 40°44' W 072°49'1 0.6
2014-Dec-13 13:26N 40°44' W 072°50'18 2.2
2014-Dec-13 05:29N 40°37' W 073°11'11 3.7
2014-Dec-13 02:22N 40°34' W 073°26'4 4.2
2014-Dec-13 01:25N 40°34' W 073°31'4 4.1
2014-Dec-13 00:24N 40°34' W 073°37'4 4.5
2014-Dec-12 23:33N 40°34' W 073°42'17 4.1
2014-Dec-12 19:21N 40°22' W 073°57'31 2.8
2014-Dec-12 08:20N 39°51' W 074°02'6 7.6
2014-Dec-12 07:32N 39°45' W 074°03'8 7.7
2014-Dec-12 06:33N 39°38' W 074°06'8 8.1
2014-Dec-12 05:33N 39°31' W 074°10'107 4.4
2014-Dec-11 05:06N 39°11' W 076°27'4 6.9
2014-Dec-11 04:33N 39°13' W 076°31'3 2.0
2014-Dec-11 03:11N 39°13' W 076°35'0 0.1
2014-Dec-11 02:26N 39°13' W 076°35'0 0.0
2014-Dec-11 01:32N 39°13' W 076°35'0 0.0
2014-Dec-11 00:23N 39°13' W 076°35'0 0.0
2014-Dec-10 23:32N 39°13' W 076°35'0 0.0
2014-Dec-10 22:29N 39°13' W 076°35'0 0.0
2014-Dec-10 21:17N 39°13' W 076°35'0 0.0
2014-Dec-10 20:32N 39°13' W 076°35'0 0.0
2014-Dec-10 19:23N 39°13' W 076°35'0 0.0
2014-Dec-10 18:23N 39°13' W 076°35'0 0.0
2014-Dec-10 17:32N 39°13' W 076°35'0 0.0
2014-Dec-10 16:32N 39°13' W 076°35'0 0.2
2014-Dec-10 15:14N 39°14' W 076°35'0 0.0
2014-Dec-10 14:32N 39°14' W 076°35'0 0.0
2014-Dec-10 13:32N 39°14' W 076°35'1 1.1
2014-Dec-10 12:34N 39°13' W 076°33'3 3.2
2014-Dec-10 11:34N 39°12' W 076°30'11 5.7
2014-Dec-10 09:34N 39°13' W 076°15'  
Track history (hours):
 
Tides and Currents Weather Stations Pressure Air Temp Water Temp Dewpoint Dewpoint Depression Visibility Wind Speed Wind Dir Waves Ship Positions

First Coast

Owner: DANN MARINE TOWING L C, CHESAPEAKE CITY, MD. More information available from US FCC via Universal Licensing System and Coast Guard Vessel Documentation Center.

Last reported at 2014-Dec-19 13:16 UTC. Time now 2014-Dec-19 13:41 UTC.
Position N 40°06' W 074°03'.

; draft 3.5 m.

Type: Tug. MMSI: 367024280.

Date/timePositionNaut miles runAvg speedWind from/ knotsBaromVisibWave heightAir tempDewpointWater temp
2014-Dec-19 13:16N 40°06' W 074°03'0 0.0
2014-Dec-19 12:16N 40°06' W 074°03'0 0.0
2014-Dec-19 11:19N 40°06' W 074°03'0 0.0
2014-Dec-19 04:22N 40°06' W 074°03'14 1.1
2014-Dec-18 15:11N 40°20' W 073°58'15 5.5
2014-Dec-18 12:28N 40°34' W 074°02'4 4.9
2014-Dec-18 11:34N 40°39' W 074°03'3 2.8
2014-Dec-18 10:33N 40°41' W 074°05'0 0.0
2014-Dec-18 09:33N 40°41' W 074°05'0 0.0
2014-Dec-18 08:33N 40°41' W 074°05'0 0.0
2014-Dec-18 07:33N 40°41' W 074°05'0 0.0
2014-Dec-18 06:33N 40°41' W 074°05'0 0.0
2014-Dec-18 05:33N 40°41' W 074°05'0 0.0
2014-Dec-18 04:33N 40°41' W 074°05'0 0.0
2014-Dec-18 03:33N 40°41' W 074°05'0 0.0
2014-Dec-18 02:33N 40°41' W 074°05'0 0.0
2014-Dec-18 01:33N 40°41' W 074°05'0 0.0
2014-Dec-18 00:33N 40°41' W 074°05'0 0.0
2014-Dec-17 23:33N 40°41' W 074°05'0 0.0
2014-Dec-17 22:33N 40°41' W 074°05'0 0.0
2014-Dec-17 21:33N 40°41' W 074°05'0 0.0
2014-Dec-17 20:30N 40°41' W 074°05'0 0.0
2014-Dec-17 19:33N 40°41' W 074°05'0 0.0
2014-Dec-17 18:33N 40°41' W 074°05'0 0.0
2014-Dec-17 17:33N 40°41' W 074°05'0 0.0
2014-Dec-17 16:33N 40°41' W 074°05'0 0.0
2014-Dec-17 15:33N 40°41' W 074°05'0 0.0
2014-Dec-17 14:33N 40°41' W 074°05'0 0.0
2014-Dec-17 13:33N 40°41' W 074°05'0 0.0
2014-Dec-17 12:33N 40°41' W 074°05'0 0.0
2014-Dec-17 11:33N 40°41' W 074°05'0 0.0
2014-Dec-17 10:33N 40°41' W 074°05'0 0.0
2014-Dec-17 09:33N 40°41' W 074°05'0 0.0
2014-Dec-17 08:33N 40°41' W 074°05'0 0.0
2014-Dec-17 07:33N 40°41' W 074°05'0 0.0
2014-Dec-17 06:33N 40°41' W 074°05'2 1.9
2014-Dec-17 05:33N 40°40' W 074°03'4 3.7
2014-Dec-17 04:33N 40°36' W 074°02'4 4.2
2014-Dec-17 03:31N 40°32' W 074°00'5 5.5
2014-Dec-17 02:33N 40°32' W 073°53'16 5.4
2014-Dec-16 23:32N 40°33' W 073°32'6 5.6
2014-Dec-16 22:32N 40°34' W 073°25'5 5.5
2014-Dec-16 21:33N 40°36' W 073°18'7 5.7
2014-Dec-16 20:20N 40°37' W 073°09'5 5.7
2014-Dec-16 19:30N 40°39' W 073°03'7 5.6
2014-Dec-16 18:10N 40°42' W 072°54'3 5.6
2014-Dec-16 17:33N 40°43' W 072°50'2 2.0
2014-Dec-16 16:31N 40°44' W 072°48'0 0.1
2014-Dec-16 15:29N 40°44' W 072°48'0 0.1
2014-Dec-16 14:24N 40°45' W 072°48'0 0.4
2014-Dec-16 13:27N 40°44' W 072°47'1 1.0
2014-Dec-16 12:30N 40°44' W 072°49'2 1.8
2014-Dec-16 11:33N 40°43' W 072°51'4 3.8
2014-Dec-16 10:33N 40°42' W 072°55'4 4.5
2014-Dec-16 09:33N 40°40' W 073°00'5 4.7
2014-Dec-16 08:33N 40°38' W 073°06'5 4.6
2014-Dec-16 07:34N 40°36' W 073°12'5 4.9
2014-Dec-16 06:30N 40°35' W 073°18'5 5.1
2014-Dec-16 05:33N 40°34' W 073°24'6 5.1
2014-Dec-16 04:28N 40°32' W 073°32'5 5.1
2014-Dec-16 03:32N 40°31' W 073°37'5 5.1
2014-Dec-16 02:33N 40°27' W 073°42'26 1.4
2014-Dec-15 08:18N 40°06' W 074°03'0 0.0
2014-Dec-15 05:32N 40°06' W 074°03'0 0.0
2014-Dec-15 04:17N 40°06' W 074°03'0 0.0
2014-Dec-15 02:29N 40°06' W 074°03'0 0.0
2014-Dec-15 00:20N 40°06' W 074°03'0 0.0
2014-Dec-14 19:14N 40°06' W 074°03'0 0.0
2014-Dec-14 15:15N 40°06' W 074°03'1 0.3
2014-Dec-14 12:32N 40°06' W 074°02'5 2.2
2014-Dec-14 10:11N 40°11' W 073°59'3 3.4
2014-Dec-14 09:27N 40°13' W 073°58'4 3.4
2014-Dec-14 08:15N 40°17' W 073°56'2 3.4
2014-Dec-14 07:33N 40°19' W 073°55'4 3.1
2014-Dec-14 06:23N 40°22' W 073°52'10 5.1
2014-Dec-14 04:21N 40°28' W 073°41'7 5.9
2014-Dec-14 03:12N 40°32' W 073°33'38 5.5
2014-Dec-13 20:18N 40°44' W 072°47'1 0.3
2014-Dec-13 17:07N 40°45' W 072°48'1 1.4
2014-Dec-13 16:24N 40°44' W 072°48'0 0.4
2014-Dec-13 15:23N 40°44' W 072°49'1 0.7
2014-Dec-13 14:30N 40°44' W 072°49'1 0.6
2014-Dec-13 13:26N 40°44' W 072°50'18 2.2
2014-Dec-13 05:29N 40°37' W 073°11'11 3.7
2014-Dec-13 02:22N 40°34' W 073°26'4 4.2
2014-Dec-13 01:25N 40°34' W 073°31'4 4.1
2014-Dec-13 00:24N 40°34' W 073°37'4 4.5
2014-Dec-12 23:33N 40°34' W 073°42'17 4.1
2014-Dec-12 19:21N 40°22' W 073°57'31 2.8
2014-Dec-12 08:20N 39°51' W 074°02'6 7.6
2014-Dec-12 07:32N 39°45' W 074°03'8 7.7
2014-Dec-12 06:33N 39°38' W 074°06'8 8.1
2014-Dec-12 05:33N 39°31' W 074°10'107 4.4
2014-Dec-11 05:06N 39°11' W 076°27'4 6.9
2014-Dec-11 04:33N 39°13' W 076°31'3 2.0
2014-Dec-11 03:11N 39°13' W 076°35'0 0.1
2014-Dec-11 02:26N 39°13' W 076°35'0 0.0
2014-Dec-11 01:32N 39°13' W 076°35'0 0.0
2014-Dec-11 00:23N 39°13' W 076°35'0 0.0
2014-Dec-10 23:32N 39°13' W 076°35'0 0.0
2014-Dec-10 22:29N 39°13' W 076°35'0 0.0
2014-Dec-10 21:17N 39°13' W 076°35'0 0.0
2014-Dec-10 20:32N 39°13' W 076°35'0 0.0
2014-Dec-10 19:23N 39°13' W 076°35'0 0.0
2014-Dec-10 18:23N 39°13' W 076°35'0 0.0
2014-Dec-10 17:32N 39°13' W 076°35'0 0.0
2014-Dec-10 16:32N 39°13' W 076°35'0 0.2
2014-Dec-10 15:14N 39°14' W 076°35'0 0.0
2014-Dec-10 14:32N 39°14' W 076°35'0 0.0
2014-Dec-10 13:32N 39°14' W 076°35'1 1.1
2014-Dec-10 12:34N 39°13' W 076°33'3 3.2
2014-Dec-10 11:34N 39°12' W 076°30'11 5.7
2014-Dec-10 09:34N 39°13' W 076°15'  

Dump ship's entire track history